createdAt,value
2022-11-24T00:00:30.247Z,9.10
2022-11-24T00:02:56.762Z,8.98
2022-11-24T00:05:23.639Z,8.67
2022-11-24T00:07:50.187Z,9.40
2022-11-24T00:10:16.787Z,9.73
2022-11-24T00:12:43.315Z,8.82
2022-11-24T00:15:10.072Z,8.60
2022-11-24T00:17:36.468Z,9.33
2022-11-24T00:20:03.023Z,9.23
2022-11-24T00:22:29.473Z,9.38
2022-11-24T00:24:55.863Z,9.68
2022-11-24T00:27:22.267Z,9.10
2022-11-24T00:29:48.812Z,9.20
2022-11-24T00:32:15.217Z,8.63
2022-11-24T00:34:41.975Z,8.80
2022-11-24T00:37:08.396Z,8.63
2022-11-24T00:39:34.786Z,9.00
2022-11-24T00:42:01.991Z,9.00
2022-11-24T00:44:28.436Z,8.02
2022-11-24T00:46:54.972Z,8.05
2022-11-24T00:49:21.530Z,7.50
2022-11-24T00:51:47.957Z,7.22
2022-11-24T00:54:14.356Z,6.97
2022-11-24T00:56:40.756Z,6.88
2022-11-24T00:59:07.295Z,7.15
2022-11-24T01:01:34.061Z,6.80
2022-11-24T01:04:02.021Z,6.65
2022-11-24T01:06:29.776Z,6.80
2022-11-24T01:08:57.781Z,6.88
2022-11-24T01:11:27.345Z,6.90
2022-11-24T01:13:59.518Z,6.70
2022-11-24T01:16:32.342Z,6.88
2022-11-24T01:18:59.213Z,6.10
2022-11-24T01:21:25.873Z,6.40
2022-11-24T01:23:52.464Z,6.32
2022-11-24T01:26:21.022Z,5.75
2022-11-24T01:28:48.126Z,6.03
2022-11-24T01:31:15.993Z,5.53
2022-11-24T01:33:42.542Z,6.50
2022-11-24T01:36:09.010Z,6.35
2022-11-24T01:38:35.454Z,5.60
2022-11-24T01:41:06.176Z,5.85
2022-11-24T01:43:33.359Z,5.60
2022-11-24T01:46:24.838Z,5.40
2022-11-24T01:49:11.760Z,5.38
2022-11-24T01:52:01.122Z,5.18
2022-11-24T01:54:33.737Z,5.22
2022-11-24T01:57:25.978Z,4.80
2022-11-24T01:59:59.641Z,5.35
2022-11-24T02:02:29.440Z,5.05
2022-11-24T02:05:00.167Z,5.80
2022-11-24T02:07:27.032Z,5.22
2022-11-24T02:09:57.806Z,4.70
2022-11-24T02:12:26.900Z,5.05
2022-11-24T02:14:55.717Z,5.25
2022-11-24T02:17:22.488Z,4.70
2022-11-24T02:19:57.433Z,5.47
2022-11-24T02:22:56.623Z,5.17
2022-11-24T02:25:27.867Z,5.40
2022-11-24T02:27:56.126Z,4.45
2022-11-24T02:30:23.663Z,4.40
2022-11-24T02:32:51.281Z,4.47
2022-11-24T02:35:17.880Z,4.43
2022-11-24T02:37:44.316Z,4.20
2022-11-24T02:40:11.109Z,4.07
2022-11-24T02:42:42.651Z,4.68
2022-11-24T02:45:11.312Z,4.15
2022-11-24T02:47:37.781Z,4.10
2022-11-24T02:50:04.597Z,4.15
2022-11-24T02:52:31.489Z,4.22
2022-11-24T02:54:57.905Z,4.30
2022-11-24T02:57:24.384Z,4.38
2022-11-24T02:59:50.845Z,3.53
2022-11-24T03:02:17.327Z,4.40
2022-11-24T03:04:44.596Z,3.97
2022-11-24T03:07:11.166Z,3.88
2022-11-24T03:09:37.733Z,4.07
2022-11-24T03:12:04.269Z,3.70
2022-11-24T03:14:30.701Z,4.57
2022-11-24T03:16:57.119Z,3.92
2022-11-24T03:19:23.534Z,3.88
2022-11-24T03:21:50.049Z,3.90
2022-11-24T03:24:16.471Z,3.77
2022-11-24T03:26:43.363Z,4.13
2022-11-24T03:29:09.962Z,4.22
2022-11-24T03:31:36.532Z,3.88
2022-11-24T03:34:03.101Z,3.60
2022-11-24T03:36:29.543Z,4.03
2022-11-24T03:38:56.382Z,3.33
2022-11-24T03:41:22.787Z,3.72
2022-11-24T03:43:49.248Z,3.53
2022-11-24T03:46:15.778Z,3.70
2022-11-24T03:48:42.274Z,2.83
2022-11-24T03:51:09.942Z,2.95
2022-11-24T03:53:36.524Z,3.00
2022-11-24T03:56:03.702Z,3.25
2022-11-24T03:58:30.733Z,2.60
2022-11-24T04:00:57.643Z,2.70
2022-11-24T04:03:24.801Z,3.10
2022-11-24T04:05:52.020Z,2.58
2022-11-24T04:08:18.922Z,2.88
2022-11-24T04:10:49.658Z,3.17
2022-11-24T04:13:17.808Z,2.70
2022-11-24T04:15:45.000Z,2.80
2022-11-24T04:18:12.590Z,2.50
2022-11-24T04:20:40.457Z,2.75
2022-11-24T04:23:07.501Z,2.85
2022-11-24T04:25:33.982Z,2.77
2022-11-24T04:28:00.343Z,3.75
2022-11-24T04:30:28.113Z,2.50
2022-11-24T04:32:54.565Z,2.90
2022-11-24T04:35:21.522Z,3.00
2022-11-24T04:37:48.049Z,2.77
2022-11-24T04:40:14.888Z,2.60
2022-11-24T04:42:41.663Z,2.90
2022-11-24T04:45:08.550Z,2.67
2022-11-24T04:47:35.025Z,2.78
2022-11-24T04:50:01.656Z,2.60
2022-11-24T04:52:29.903Z,2.42
2022-11-24T04:54:56.241Z,2.30
2022-11-24T04:57:25.286Z,2.92
2022-11-24T04:59:52.646Z,2.67
2022-11-24T05:02:19.194Z,2.80
2022-11-24T05:04:46.110Z,2.83
2022-11-24T05:07:18.315Z,2.50
2022-11-24T05:10:18.986Z,2.47
2022-11-24T05:12:51.043Z,2.90
2022-11-24T05:15:17.768Z,2.23
2022-11-24T05:17:44.135Z,2.03
2022-11-24T05:20:10.754Z,2.13
2022-11-24T05:22:37.196Z,2.20
2022-11-24T05:25:03.770Z,2.08
2022-11-24T05:27:30.150Z,2.50
2022-11-24T05:29:56.508Z,2.65
2022-11-24T05:32:23.509Z,2.22
2022-11-24T05:34:50.417Z,2.50
2022-11-24T05:37:17.697Z,2.40
2022-11-24T05:39:44.353Z,2.57
2022-11-24T05:42:29.664Z,2.88
2022-11-24T05:44:57.333Z,2.75
2022-11-24T05:47:24.029Z,2.45
2022-11-24T05:49:50.354Z,2.10
2022-11-24T05:52:17.145Z,2.47
2022-11-24T05:54:43.610Z,2.45
2022-11-24T05:57:10.000Z,2.85
2022-11-24T05:59:36.349Z,2.42
2022-11-24T06:02:03.064Z,2.50
2022-11-24T06:04:29.564Z,2.53
2022-11-24T06:06:55.973Z,2.70
2022-11-24T06:09:22.351Z,2.70
2022-11-24T06:11:48.947Z,2.63
2022-11-24T06:14:15.524Z,2.50
2022-11-24T06:16:42.023Z,2.20
2022-11-24T06:19:10.442Z,2.53
2022-11-24T06:21:36.936Z,2.33
2022-11-24T06:24:03.577Z,2.17
2022-11-24T06:26:29.947Z,2.88
2022-11-24T06:28:56.329Z,2.70
2022-11-24T06:31:22.824Z,2.25
2022-11-24T06:33:49.259Z,2.70
2022-11-24T06:36:15.763Z,2.70
2022-11-24T06:38:42.118Z,3.08
2022-11-24T06:41:13.110Z,2.43
2022-11-24T06:43:39.967Z,2.65
2022-11-24T06:46:06.530Z,2.45
2022-11-24T06:48:33.257Z,2.00
2022-11-24T06:51:07.902Z,2.42
2022-11-24T06:53:37.815Z,2.77
2022-11-24T06:56:15.186Z,2.40
2022-11-24T06:58:44.291Z,2.03
2022-11-24T07:01:15.737Z,3.05
2022-11-24T07:03:42.259Z,2.10
2022-11-24T07:06:08.917Z,2.17
2022-11-24T07:08:35.393Z,2.70
2022-11-24T07:11:10.094Z,3.55
2022-11-24T07:13:36.564Z,4.68
2022-11-24T07:16:23.543Z,4.20
2022-11-24T07:18:51.418Z,3.73
2022-11-24T07:21:19.542Z,4.10
2022-11-24T07:23:49.989Z,5.45
2022-11-24T07:26:16.833Z,3.90
2022-11-24T07:28:43.251Z,4.18
2022-11-24T07:31:15.865Z,3.43
2022-11-24T07:33:42.494Z,3.92
2022-11-24T07:36:09.587Z,2.83
2022-11-24T07:38:36.083Z,2.78
2022-11-24T07:41:04.795Z,3.45
2022-11-24T07:43:32.416Z,3.23
2022-11-24T07:45:59.307Z,3.45
2022-11-24T07:48:26.008Z,3.20
2022-11-24T07:50:55.745Z,3.20
2022-11-24T07:53:22.622Z,3.30
2022-11-24T07:55:56.828Z,2.70
2022-11-24T07:58:23.312Z,3.33
2022-11-24T08:00:49.994Z,2.88
2022-11-24T08:03:16.643Z,3.33
2022-11-24T08:06:07.818Z,2.75
2022-11-24T08:08:33.313Z,3.27
2022-11-24T08:11:05.878Z,3.53
2022-11-24T08:13:32.330Z,3.88
2022-11-24T08:15:58.688Z,3.85
2022-11-24T08:18:25.205Z,3.92
2022-11-24T08:20:51.624Z,3.43
2022-11-24T08:23:18.050Z,3.50
2022-11-24T08:25:44.419Z,3.53
2022-11-24T08:28:10.757Z,3.50
2022-11-24T08:30:37.132Z,3.65
2022-11-24T08:33:03.840Z,3.67
2022-11-24T08:35:30.361Z,3.90
2022-11-24T08:38:00.382Z,3.83
2022-11-24T08:40:31.527Z,4.00
2022-11-24T08:43:01.411Z,3.55
2022-11-24T08:45:30.644Z,3.70
2022-11-24T08:47:57.368Z,3.75
2022-11-24T08:50:25.748Z,4.60
2022-11-24T08:52:53.523Z,4.15
2022-11-24T08:55:20.461Z,3.88
2022-11-24T08:57:46.855Z,4.03
2022-11-24T09:00:13.883Z,3.83
2022-11-24T09:02:40.249Z,4.03
2022-11-24T09:05:22.453Z,3.47
2022-11-24T09:07:53.319Z,3.15
2022-11-24T09:10:19.928Z,3.67
2022-11-24T09:12:47.740Z,3.17
2022-11-24T09:15:16.410Z,3.15
2022-11-24T09:17:43.573Z,3.22
2022-11-24T09:20:10.010Z,3.20
2022-11-24T18:33:29.056Z,5.03
2022-11-24T18:35:57.462Z,5.03
2022-11-24T18:38:24.400Z,5.32
2022-11-24T18:40:55.802Z,5.25
2022-11-24T18:43:24.310Z,4.63
2022-11-24T18:45:53.022Z,5.03
2022-11-24T18:48:21.152Z,4.63
2022-11-24T18:50:55.012Z,4.95
2022-11-24T18:53:23.169Z,5.00
2022-11-24T18:56:03.482Z,5.00
2022-11-24T18:58:32.001Z,5.27
2022-11-24T19:01:13.691Z,5.03
2022-11-24T19:03:48.556Z,4.70
2022-11-24T19:06:33.255Z,4.60
2022-11-24T19:09:02.770Z,4.13
2022-11-24T19:11:33.577Z,4.63
2022-11-24T19:14:00.868Z,5.18
2022-11-24T19:16:27.295Z,4.82
2022-11-24T19:19:00.003Z,4.60
2022-11-24T19:21:27.959Z,4.72
2022-11-24T19:23:55.778Z,4.60
2022-11-24T19:26:24.023Z,3.88
2022-11-24T19:28:50.479Z,3.90
2022-11-24T19:31:18.141Z,4.40
2022-11-24T19:33:45.082Z,4.90
2022-11-24T19:36:14.677Z,4.80
2022-11-24T19:38:41.816Z,4.35
2022-11-24T19:41:10.854Z,4.00
2022-11-24T19:43:37.810Z,4.40
2022-11-24T19:46:07.131Z,4.05
2022-11-24T19:48:36.669Z,4.13
2022-11-24T19:51:05.940Z,4.43
2022-11-24T19:53:33.356Z,4.00
2022-11-24T19:56:13.825Z,4.00
2022-11-24T19:58:40.902Z,4.40
2022-11-24T20:01:08.997Z,4.17
2022-11-24T20:03:36.139Z,4.30
2022-11-24T20:06:02.807Z,4.28
2022-11-24T20:08:34.009Z,4.10
2022-11-24T20:11:15.292Z,3.95
2022-11-24T20:13:43.779Z,4.27
2022-11-24T20:16:16.090Z,4.00
2022-11-24T20:18:46.049Z,4.10
2022-11-24T20:21:16.414Z,4.38
2022-11-24T20:23:43.144Z,4.05
2022-11-24T20:26:16.473Z,4.30
2022-11-24T20:28:43.228Z,4.50
2022-11-24T20:31:22.247Z,4.53
2022-11-24T20:33:48.761Z,4.72
2022-11-24T20:36:21.605Z,4.50
2022-11-24T20:38:49.082Z,4.77
2022-11-24T20:41:18.796Z,5.65
2022-11-24T20:43:45.652Z,4.65
2022-11-24T20:46:15.864Z,5.00
2022-11-24T20:48:42.858Z,4.70
2022-11-24T20:51:14.811Z,4.90
2022-11-24T20:53:41.864Z,4.82
2022-11-24T20:56:12.283Z,4.45
2022-11-24T20:58:39.240Z,5.03
2022-11-24T21:01:14.275Z,5.03
2022-11-24T21:03:43.512Z,4.63
2022-11-24T21:06:11.726Z,4.43
2022-11-24T21:08:40.322Z,5.25
2022-11-24T21:11:08.508Z,4.38
2022-11-24T21:13:36.490Z,5.20
2022-11-24T21:16:16.394Z,5.23
2022-11-24T21:18:44.602Z,4.65
2022-11-24T21:21:12.365Z,5.22
2022-11-24T21:23:39.259Z,4.88
2022-11-24T21:26:11.489Z,4.78
2022-11-24T21:28:42.245Z,4.93
2022-11-24T21:31:12.027Z,5.07
2022-11-24T21:33:46.768Z,4.43
2022-11-24T21:36:14.923Z,4.82
2022-11-24T21:38:42.674Z,4.35
2022-11-24T21:41:11.737Z,4.80
2022-11-24T21:43:38.580Z,4.65
2022-11-24T21:46:07.537Z,4.60
2022-11-24T21:48:35.526Z,4.45
2022-11-24T21:51:04.931Z,3.78
2022-11-24T21:53:33.909Z,4.07
2022-11-24T21:56:02.042Z,4.30
2022-11-24T21:58:29.098Z,3.78
2022-11-24T22:01:01.853Z,4.45
2022-11-24T22:03:28.338Z,4.57
2022-11-24T22:05:56.357Z,3.87
2022-11-24T22:08:24.275Z,4.20
2022-11-24T22:10:51.062Z,3.78
2022-11-24T22:13:18.068Z,3.85
2022-11-24T22:15:44.483Z,3.92
2022-11-24T22:18:10.941Z,3.77
2022-11-24T22:20:37.489Z,4.43
2022-11-24T22:23:04.111Z,3.45
2022-11-24T22:25:30.457Z,3.08
2022-11-24T22:27:58.215Z,3.70
2022-11-24T22:30:24.601Z,3.37
2022-11-24T22:32:50.966Z,3.60
2022-11-24T22:35:17.319Z,3.65
2022-11-24T22:37:43.644Z,4.55
2022-11-24T22:40:10.273Z,3.88
2022-11-24T22:42:36.617Z,3.10
2022-11-24T22:45:03.265Z,3.67
2022-11-24T22:47:29.634Z,4.03
2022-11-24T22:49:56.017Z,3.38
2022-11-24T22:52:22.402Z,3.95
2022-11-24T22:54:48.775Z,3.40
2022-11-24T22:57:15.124Z,3.13
2022-11-24T22:59:41.597Z,3.67
2022-11-24T23:02:07.959Z,3.38
2022-11-24T23:04:34.498Z,3.45
2022-11-24T23:07:01.032Z,3.10
2022-11-24T23:09:27.564Z,3.70
2022-11-24T23:11:53.916Z,3.50
2022-11-24T23:14:20.388Z,3.25
